KVJI/VJI METAR and TAF weather

Enter ICAO airport designator
Station Type Date Time Source
KVJI METAR 2021/07/26 16:15 UTC NOAA

KVJI 261615Z AUTO 26007KT 10SM BKN019 BKN110 28/21 A3009 RMK AO2 T02820206


Station Type Date Time Source
KVJI Decoded METAR 2021/07/26 16:15 UTC NOAA

Abingdon, VA, United States (KVJI) 36-41N 082-02W
Jul 26, 2021 - 12:15 PM EDT / 2021.07.26 1615 UTC
Wind: from the W (260 degrees) at 8 MPH (7 KT):0
Visibility: 10 mile(s):0
Sky conditions: mostly cloudy
Temperature: 82.8 F (28.2 C)
Dew Point: 69.1 F (20.6 C)
Relative Humidity: 63%
Pressure (altimeter): 30.09 in. Hg (1018 hPa)
ob: KVJI 261615Z AUTO 26007KT 10SM BKN019 BKN110 28/21 A3009 RMK AO2 T02820206
cycle: 16

Station Type Date Time Source
KVJI TAF UTC NOAA

Error!

Example: see airport list